Time;durP1;ratioP1;P1;durP2;ratioP2;P2;SDS_P1;SDS_P2;PMS_P1;PMS_P2;Temp;Humidity;BMP_temperature;BMP_pressure;BME280_temperature;BME280_humidity;BME280_pressure;Samples;Min_cycle;Max_cycle;Signal;HPM_P1;HPM_P2
2021/12/22 00:02:05;;;;;;;30.02;16.60;;;;;;;;;;5059998;28;20561;-81
2021/12/22 00:04:33;;;;;;;24.40;9.90;;;;;;;;;;5040190;28;20045;-81
2021/12/22 00:06:59;;;;;;;39.70;15.10;;;;;;;;;;5041540;28;20125;-81
2021/12/22 00:09:25;;;;;;;35.65;19.80;;;;;;;;;;5043285;28;20057;-81
2021/12/22 00:11:51;;;;;;;28.52;16.27;;;;;;;;;;5052892;28;20142;-82
2021/12/22 00:14:17;;;;;;;27.65;14.73;;;;;;;;;;5037628;28;20521;-81
2021/12/22 00:16:43;;;;;;;37.75;20.90;;;-2.30;99.90;;;;;;5038486;28;20059;-81
2021/12/22 00:19:10;;;;;;;36.25;16.83;;;;;;;;;;5036651;28;20041;-81
2021/12/22 00:21:36;;;;;;;21.50;12.00;;;-2.30;99.90;;;;;;5044930;28;20178;-82
2021/12/22 00:24:02;;;;;;;32.17;16.98;;;;;;;;;;5056986;28;20044;-82
2021/12/22 00:26:28;;;;;;;38.85;19.90;;;-2.30;99.90;;;;;;5037691;28;20032;-82
2021/12/22 00:28:54;;;;;;;34.70;19.25;;;;;;;;;;5034173;28;20037;-82
2021/12/22 00:31:21;;;;;;;41.95;20.15;;;;;;;;;;5034274;28;20045;-83
2021/12/22 00:33:52;;;;;;;65.18;23.48;;;;;;;;;;5042476;28;20036;-83
2021/12/22 00:36:23;;;;;;;44.28;24.08;;;;;;;;;;5061290;28;20044;-81
2021/12/22 00:38:50;;;;;;;38.40;20.27;;;-2.20;99.90;;;;;;5032322;28;20044;-82
2021/12/22 00:41:17;;;;;;;37.47;16.77;;;;;;;;;;5055913;28;20056;-82
2021/12/22 00:43:43;;;;;;;11.18;7.03;;;;;;;;;;5033563;28;20101;-81
2021/12/22 00:46:12;;;;;;;14.45;6.80;;;-2.40;99.90;;;;;;5054101;28;20064;-82
2021/12/22 00:48:38;;;;;;;14.38;6.90;;;;;;;;;;5029318;28;20048;-82
2021/12/22 00:51:04;;;;;;;23.70;12.10;;;;;;;;;;5063565;28;20100;-81
2021/12/22 00:53:31;;;;;;;27.73;12.93;;;;;;;;;;5065739;28;20052;-78
2021/12/22 00:55:57;;;;;;;28.63;15.50;;;;;;;;;;5081829;28;20076;-80
2021/12/22 00:58:23;;;;;;;38.17;18.95;;;;;;;;;;5081119;28;20087;-78
2021/12/22 01:00:49;;;;;;;31.27;17.95;;;-2.70;99.90;;;;;;5059038;28;20036;-82
2021/12/22 01:03:16;;;;;;;29.10;14.93;;;;;;;;;;5041541;28;20466;-82
2021/12/22 01:05:42;;;;;;;39.55;19.58;;;;;;;;;;5050865;28;20044;-82
2021/12/22 01:08:09;;;;;;;37.63;19.20;;;;;;;;;;5049570;28;20057;-82
2021/12/22 01:10:36;;;;;;;44.72;23.90;;;-2.60;99.90;;;;;;5054788;28;20060;-82
2021/12/22 01:13:05;;;;;;;51.42;23.60;;;-2.70;99.90;;;;;;5042553;28;20408;-82
2021/12/22 01:15:33;;;;;;;53.47;27.00;;;-2.60;99.90;;;;;;5041018;28;20120;-82
2021/12/22 01:18:04;;;;;;;51.75;26.98;;;-2.60;99.90;;;;;;5052025;28;20037;-82
2021/12/22 01:20:37;;;;;;;50.38;26.10;;;;;;;;;;5044244;28;20119;-82
2021/12/22 01:23:05;;;;;;;56.40;28.02;;;-2.90;99.90;;;;;;5040658;28;20476;-82
2021/12/22 01:25:35;;;;;;;152.45;32.97;;;-2.60;99.90;;;;;;5044336;28;20303;-83
2021/12/22 01:28:01;;;;;;;62.20;29.55;;;;;;;;;;5036159;28;20072;-82
2021/12/22 01:30:29;;;;;;;62.88;33.13;;;;;;;;;;5059175;28;20048;-82
2021/12/22 01:32:59;;;;;;;68.20;30.40;;;-2.90;99.90;;;;;;5047981;28;20047;-83
2021/12/22 01:35:28;;;;;;;60.80;28.58;;;-3.00;99.90;;;;;;5049462;28;20037;-82
2021/12/22 01:37:54;;;;;;;69.57;29.42;;;;;;;;;;5061648;28;20076;-82
2021/12/22 01:40:21;;;;;;;71.22;28.27;;;;;;;;;;5054711;28;20545;-83
2021/12/22 01:42:48;;;;;;;63.78;31.05;;;-2.90;99.90;;;;;;5041149;28;20580;-83
2021/12/22 01:45:30;;;;;;;61.65;29.38;;;;;;;;;;5053758;28;20056;-81
2021/12/22 01:50:44;;;;;;;54.65;27.83;;;;;;;;;;5047861;28;20542;-83
2021/12/22 01:53:21;;;;;;;55.42;27.65;;;-3.20;99.90;;;;;;5056421;28;20037;-85
2021/12/22 01:56:01;;;;;;;61.88;29.27;;;-3.30;99.90;;;;;;5055391;28;20067;-82
2021/12/22 01:58:38;;;;;;;57.80;28.65;;;;;;;;;;5049266;28;20571;-78
2021/12/22 02:01:05;;;;;;;77.97;32.42;;;;;;;;;;5040534;28;20561;-83
2021/12/22 02:03:31;;;;;;;73.35;34.20;;;-3.50;99.90;;;;;;5056651;28;20431;-81
2021/12/22 02:05:57;;;;;;;68.85;33.25;;;;;;;;;;5058093;28;20467;-81
2021/12/22 02:08:24;;;;;;;73.40;35.58;;;;;;;;;;5050552;28;20188;-81
2021/12/22 02:10:50;;;;;;;71.63;33.22;;;;;;;;;;5057738;28;20501;-83
2021/12/22 02:13:22;;;;;;;76.72;32.33;;;;;;;;;;5037695;28;20487;-83
2021/12/22 02:15:49;;;;;;;60.38;28.02;;;-3.30;99.90;;;;;;5040590;28;20407;-83
2021/12/22 02:18:21;;;;;;;56.63;25.33;;;;;;;;;;5041527;28;20039;-83
2021/12/22 02:20:48;;;;;;;35.58;13.55;;;-3.00;99.90;;;;;;5049546;28;20053;-83
2021/12/22 02:23:15;;;;;;;24.58;11.45;;;;;;;;;;5054068;28;20108;-83
2021/12/22 02:25:50;;;;;;;13.25;6.32;;;;;;;;;;5043480;28;20041;-83
2021/12/22 02:28:22;;;;;;;30.20;17.05;;;;;;;;;;5058079;28;20414;-83
2021/12/22 02:30:50;;;;;;;42.35;22.00;;;-2.90;99.90;;;;;;5060074;28;20124;-84
2021/12/22 02:33:32;;;;;;;40.88;20.50;;;;;;;;;;5058054;28;20044;-83
2021/12/22 02:38:49;;;;;;;49.85;24.15;;;-3.00;99.90;;;;;;5050276;28;20045;-83
2021/12/22 02:41:15;;;;;;;;;;;;;;;;;;5058170;28;20064;-82
2021/12/22 02:43:48;;;;;;;33.42;18.33;;;-3.40;99.90;;;;;;5045903;28;19925;-82
2021/12/22 02:46:16;;;;;;;42.92;22.38;;;;;;;;;;5066244;28;20457;-82
2021/12/22 02:48:43;;;;;;;12.88;6.00;;;-3.20;99.90;;;;;;5048015;28;20131;-83
2021/12/22 02:51:09;;;;;;;37.38;17.52;;;;;;;;;;5050745;28;20104;-83
2021/12/22 02:53:50;;;;;;;17.63;10.60;;;-2.70;99.90;;;;;;5043526;28;20508;-83
2021/12/22 03:04:01;;;;;;;14.75;6.25;;;;;;;;;;5055330;28;20048;-83
2021/12/22 03:06:38;;;;;;;13.18;8.35;;;-2.70;99.90;;;;;;5043867;28;20040;-83
2021/12/22 03:09:32;;;;;;;11.27;5.57;;;-2.80;99.90;;;;;;5033150;28;20384;-84
2021/12/22 03:12:01;;;;;;;18.35;8.02;;;-2.70;99.90;;;;;;5035312;28;20071;-81
2021/12/22 03:14:28;;;;;;;10.73;5.97;;;;;;;;;;5030368;28;20055;-84
2021/12/22 03:16:55;;;;;;;17.33;8.82;;;-3.00;99.90;;;;;;5045129;28;20048;-84
2021/12/22 03:19:31;;;;;;;32.40;16.63;;;;;;;;;;5051412;28;20041;-82
2021/12/22 03:22:06;;;;;;;34.95;18.33;;;;;;;;;;5047323;28;20380;-82
2021/12/22 03:24:33;;;;;;;33.10;15.43;;;;;;;;;;5040316;28;20060;-83
2021/12/22 03:27:02;;;;;;;9.95;4.80;;;;;;;;;;5054746;28;20045;-84
2021/12/22 03:29:29;;;;;;;37.97;19.15;;;;;;;;;;5056778;28;20464;-83
2021/12/22 03:31:55;;;;;;;9.82;5.35;;;;;;;;;;5027850;28;20060;-84
2021/12/22 03:34:21;;;;;;;15.27;9.40;;;;;;;;;;5041555;28;20323;-84
2021/12/22 03:36:47;;;;;;;18.50;11.00;;;;;;;;;;5045967;28;20448;-84
2021/12/22 03:39:15;;;;;;;27.17;12.27;;;-3.30;99.90;;;;;;5039936;28;20049;-83
2021/12/22 03:41:42;;;;;;;29.10;15.27;;;-3.40;99.90;;;;;;5043895;28;20445;-83
2021/12/22 03:44:09;;;;;;;22.38;12.23;;;;;;;;;;5059634;28;20098;-84
2021/12/22 03:46:35;;;;;;;26.23;12.82;;;-3.10;99.90;;;;;;5047397;28;20115;-84
2021/12/22 03:49:02;;;;;;;16.60;8.40;;;-2.90;99.90;;;;;;5037334;28;20039;-84
2021/12/22 03:51:28;;;;;;;30.63;17.23;;;-3.10;99.90;;;;;;5055421;28;20056;-84
2021/12/22 03:53:54;;;;;;;30.13;16.13;;;;;;;;;;5058142;28;20598;-83
2021/12/22 03:56:21;;;;;;;4.63;3.88;;;;;;;;;;5055033;28;20522;-84
2021/12/22 03:58:47;;;;;;;8.55;4.45;;;;;;;;;;5031413;28;20415;-84
2021/12/22 04:01:13;;;;;;;6.25;4.13;;;;;;;;;;5057181;28;20040;-84
2021/12/22 04:03:42;;;;;;;15.38;7.80;;;;;;;;;;5042294;28;20055;-85
2021/12/22 04:06:08;;;;;;;34.10;15.45;;;;;;;;;;5060603;28;20050;-85
2021/12/22 04:08:34;;;;;;;32.13;17.48;;;;;;;;;;5053386;28;20091;-86
2021/12/22 04:11:00;;;;;;;21.05;11.45;;;;;;;;;;5038619;28;20127;-86
2021/12/22 04:13:26;;;;;;;9.07;5.22;;;;;;;;;;5062795;28;20114;-84
2021/12/22 04:15:52;;;;;;;35.35;17.90;;;;;;;;;;5039072;28;20510;-85
2021/12/22 04:18:19;;;;;;;35.53;12.05;;;;;;;;;;5058902;28;20106;-84
2021/12/22 04:20:46;;;;;;;34.05;16.75;;;;;;;;;;5058405;28;20047;-83
2021/12/22 04:23:12;;;;;;;30.80;15.48;;;;;;;;;;5041269;28;20052;-84
2021/12/22 04:25:39;;;;;;;38.00;18.73;;;;;;;;;;5045501;28;20044;-84
2021/12/22 04:28:08;;;;;;;37.10;18.13;;;;;;;;;;5039354;28;20233;-84
2021/12/22 04:30:35;;;;;;;28.48;14.57;;;;;;;;;;5037274;28;20492;-84
2021/12/22 04:33:02;;;;;;;18.67;8.52;;;;;;;;;;5055799;28;20048;-84
2021/12/22 04:35:29;;;;;;;29.67;15.93;;;;;;;;;;5049882;28;20044;-84
2021/12/22 04:37:55;;;;;;;24.75;12.27;;;;;;;;;;5045518;28;20395;-83
2021/12/22 04:40:21;;;;;;;7.32;2.17;;;;;;;;;;5053186;28;20085;-84
2021/12/22 04:42:48;;;;;;;17.52;9.45;;;;;;;;;;5041010;28;20070;-84
2021/12/22 04:45:15;;;;;;;15.13;5.28;;;;;;;;;;5048185;28;20040;-84
2021/12/22 04:47:42;;;;;;;11.05;5.85;;;;;;;;;;5042256;28;20041;-85
2021/12/22 04:50:14;;;;;;;11.20;5.55;;;-3.50;99.90;;;;;;5056129;28;20047;-87
2021/12/22 04:52:48;;;;;;;11.23;5.47;;;;;;;;;;5054362;28;20041;-87
2021/12/22 04:55:14;;;;;;;15.98;7.40;;;;;;;;;;5059289;28;20044;-86
2021/12/22 04:57:41;;;;;;;12.57;6.63;;;;;;;;;;5058387;28;20086;-88
2021/12/22 05:00:09;;;;;;;22.88;9.65;;;;;;;;;;5044233;28;20412;-88
2021/12/22 05:02:36;;;;;;;9.93;6.15;;;;;;;;;;5044149;28;20491;-84
2021/12/22 05:05:02;;;;;;;13.48;7.85;;;;;;;;;;5048894;28;20500;-86
2021/12/22 05:07:28;;;;;;;13.55;6.65;;;;;;;;;;5044519;28;20060;-85
2021/12/22 05:09:54;;;;;;;11.18;5.53;;;;;;;;;;5036888;28;20051;-86
2021/12/22 05:12:20;;;;;;;11.93;6.43;;;-3.00;99.90;;;;;;5038904;28;20087;-82
2021/12/22 05:14:49;;;;;;;13.27;6.38;;;;;;;;;;5054672;28;20068;-83
2021/12/22 05:20:06;;;;;;;7.57;3.67;;;;;;;;;;5026292;28;20542;-83
2021/12/22 05:22:32;;;;;;;9.68;5.07;;;;;;;;;;5057457;28;20036;-84
2021/12/22 05:24:59;;;;;;;6.60;4.05;;;;;;;;;;5043482;28;20036;-84
2021/12/22 05:27:28;;;;;;;24.63;10.88;;;-5.70;99.90;;;;;;5050225;28;20044;-83
2021/12/22 05:29:55;;;;;;;9.60;5.60;;;;;;;;;;5037490;28;20045;-81
2021/12/22 05:32:25;;;;;;;15.60;6.43;;;;;;;;;;5053771;28;20561;-83
2021/12/22 05:34:52;;;;;;;13.00;6.18;;;;;;;;;;5055401;28;20368;-82
2021/12/22 05:37:18;;;;;;;16.70;7.90;;;;;;;;;;5031754;28;20943;-84
2021/12/22 05:39:45;;;;;;;8.93;5.28;;;;;;;;;;5048919;28;20499;-84
2021/12/22 05:42:11;;;;;;;16.23;8.32;;;;;;;;;;5045913;28;20590;-84
2021/12/22 05:44:37;;;;;;;9.90;5.35;;;-3.20;99.90;;;;;;5037356;28;20234;-85
2021/12/22 05:47:03;;;;;;;16.02;7.07;;;-3.30;99.90;;;;;;5030175;28;20036;-86
2021/12/22 05:49:29;;;;;;;10.77;6.28;;;;;;;;;;5036651;28;20534;-84
2021/12/22 05:51:55;;;;;;;13.32;6.93;;;-3.40;99.90;;;;;;5034281;28;20096;-83
2021/12/22 05:54:21;;;;;;;14.48;7.70;;;;;;;;;;5048078;28;20461;-83
2021/12/22 05:56:47;;;;;;;18.90;9.18;;;;;;;;;;5053971;28;20040;-83
2021/12/22 05:59:13;;;;;;;34.70;16.77;;;;;;;;;;5037800;28;20223;-84
2021/12/22 06:01:40;;;;;;;19.25;9.70;;;;;;;;;;5049614;28;20043;-83
2021/12/22 06:04:07;;;;;;;29.98;14.88;;;;;;;;;;5055839;28;20048;-84
2021/12/22 06:06:33;;;;;;;26.25;12.20;;;-3.70;99.90;;;;;;5038780;28;20074;-83
2021/12/22 06:09:00;;;;;;;19.65;9.07;;;;;;;;;;5043584;28;20044;-81
2021/12/22 06:11:26;;;;;;;13.55;7.57;;;;;;;;;;5032772;28;20102;-83
2021/12/22 06:13:52;;;;;;;14.95;9.40;;;;;;;;;;5049910;28;20396;-84
2021/12/22 06:16:18;;;;;;;9.77;5.53;;;-3.30;99.90;;;;;;5048885;28;20408;-82
2021/12/22 06:18:46;;;;;;;16.58;7.18;;;;;;;;;;5043085;28;20503;-82
2021/12/22 06:21:13;;;;;;;20.20;8.98;;;-3.20;99.90;;;;;;5029384;28;20081;-83
2021/12/22 06:23:40;;;;;;;16.33;8.98;;;;;;;;;;5054721;28;20044;-82
2021/12/22 06:26:06;;;;;;;17.33;5.35;;;;;;;;;;5035184;28;20045;-83
2021/12/22 06:28:33;;;;;;;11.45;6.68;;;;;;;;;;5040336;28;20127;-82
2021/12/22 06:30:59;;;;;;;14.13;6.80;;;;;;;;;;5030049;28;20119;-83
2021/12/22 06:33:25;;;;;;;30.75;16.17;;;-3.60;99.90;;;;;;5034035;28;20045;-83
2021/12/22 06:35:51;;;;;;;29.45;15.82;;;;;;;;;;5039168;28;20122;-83
2021/12/22 06:38:17;;;;;;;26.55;12.68;;;-2.80;99.90;;;;;;5046084;28;20394;-83
2021/12/22 06:40:43;;;;;;;25.33;13.57;;;-3.70;99.90;;;;;;5054814;28;20076;-84
2021/12/22 06:43:10;;;;;;;37.83;17.60;;;;;;;;;;5026840;28;20479;-83
2021/12/22 06:45:36;;;;;;;31.35;16.88;;;;;;;;;;5047556;28;20401;-83
2021/12/22 06:48:02;;;;;;;36.42;17.83;;;-4.40;99.90;;;;;;5031391;28;20082;-81
2021/12/22 06:50:28;;;;;;;31.55;15.65;;;;;;;;;;5049111;28;20052;-84
2021/12/22 06:52:54;;;;;;;29.17;15.25;;;-4.40;99.90;;;;;;5035751;28;20049;-83
2021/12/22 06:55:21;;;;;;;33.83;13.02;;;;;;;;;;5037411;28;20508;-83
2021/12/22 06:57:47;;;;;;;34.85;16.58;;;;;;;;;;5030767;28;20471;-82
2021/12/22 07:00:14;;;;;;;22.70;10.40;;;-4.00;99.90;;;;;;5051586;28;20062;-83
2021/12/22 07:02:40;;;;;;;23.75;10.63;;;;;;;;;;5040781;28;20094;-84
2021/12/22 07:05:09;;;;;;;8.23;5.38;;;-3.90;99.90;;;;;;5037048;28;20428;-82
2021/12/22 07:07:35;;;;;;;15.07;8.88;;;;;;;;;;5035466;28;20821;-82
2021/12/22 07:10:02;;;;;;;16.05;7.05;;;;;;;;;;5060646;28;20032;-82
2021/12/22 07:12:28;;;;;;;11.07;6.00;;;;;;;;;;5058479;28;20032;-82
2021/12/22 07:14:54;;;;;;;19.15;9.77;;;;;;;;;;5068059;28;20036;-83
2021/12/22 07:17:20;;;;;;;16.67;9.93;;;;;;;;;;5049840;28;20348;-84
2021/12/22 07:19:46;;;;;;;12.50;7.28;;;;;;;;;;5050735;28;20137;-83
2021/12/22 07:22:12;;;;;;;15.35;8.07;;;;;;;;;;5060127;28;20156;-85
2021/12/22 07:24:39;;;;;;;15.45;7.93;;;;;;;;;;5063153;28;20044;-85
2021/12/22 07:27:05;;;;;;;12.15;6.32;;;;;;;;;;5052790;28;20127;-82
2021/12/22 07:29:30;;;;;;;19.75;9.65;;;-3.50;99.90;;;;;;5056607;28;20063;-84
2021/12/22 07:31:56;;;;;;;18.17;9.05;;;;;;;;;;5055120;28;20507;-84
2021/12/22 07:34:22;;;;;;;20.45;8.82;;;;;;;;;;5046837;28;20174;-82
2021/12/22 07:37:13;;;;;;;20.65;9.38;;;-3.40;99.90;;;;;;5052493;28;20139;-83
2021/12/22 07:39:39;;;;;;;15.80;7.47;;;-3.50;99.90;;;;;;5034312;28;20087;-82
2021/12/22 07:42:05;;;;;;;17.08;7.57;;;-3.40;99.90;;;;;;5047154;28;20073;-81
2021/12/22 07:44:30;;;;;;;18.77;8.02;;;-3.60;99.90;;;;;;5053957;28;20468;-83
2021/12/22 07:46:56;;;;;;;13.32;6.50;;;-3.50;99.90;;;;;;5060435;28;20525;-83
2021/12/22 07:49:22;;;;;;;13.85;5.63;;;;;;;;;;5057244;28;20515;-82
2021/12/22 07:51:48;;;;;;;28.63;12.32;;;-3.40;99.90;;;;;;5054249;28;20066;-83
2021/12/22 07:54:14;;;;;;;26.52;11.60;;;;;;;;;;5056681;28;20036;-83
2021/12/22 07:56:40;;;;;;;24.45;12.52;;;;;;;;;;5042802;28;20448;-83
2021/12/22 07:59:06;;;;;;;20.75;9.88;;;;;;;;;;5056913;28;20050;-82
2021/12/22 08:01:32;;;;;;;19.08;9.90;;;-4.20;99.90;;;;;;5062473;28;20074;-82
2021/12/22 08:03:59;;;;;;;6.97;3.88;;;;;;;;;;5061862;28;20449;-83
2021/12/22 08:06:25;;;;;;;7.47;4.47;;;;;;;;;;5036812;28;20435;-83
2021/12/22 08:08:51;;;;;;;9.30;4.97;;;;;;;;;;5054528;28;20182;-84
2021/12/22 08:11:17;;;;;;;11.80;4.93;;;-3.20;99.90;;;;;;5050431;28;20410;-84
2021/12/22 08:13:43;;;;;;;18.27;8.95;;;;;;;;;;5051317;28;20049;-84
2021/12/22 08:16:09;;;;;;;15.35;7.68;;;;;;;;;;5053227;28;20424;-83
2021/12/22 08:18:35;;;;;;;11.82;6.18;;;-3.20;99.90;;;;;;5058195;28;20068;-83
2021/12/22 08:21:01;;;;;;;14.40;5.68;;;;;;;;;;5044334;28;20083;-83
2021/12/22 08:23:27;;;;;;;15.25;6.65;;;;;;;;;;5041932;28;20076;-83
2021/12/22 08:25:53;;;;;;;21.85;9.85;;;-3.50;99.90;;;;;;5054731;28;20044;-82
2021/12/22 08:28:19;;;;;;;16.20;8.95;;;;;;;;;;5040874;28;20054;-84
2021/12/22 08:30:46;;;;;;;16.77;8.60;;;-3.10;99.90;;;;;;5061065;28;20047;-85
2021/12/22 08:33:24;;;;;;;16.42;9.15;;;;;;;;;;5037173;28;20793;-81
2021/12/22 08:38:55;;;;;;;16.05;8.45;;;;;;;;;;5057101;28;20080;-82
2021/12/22 08:41:22;;;;;;;20.42;10.48;;;;;;;;;;5042184;28;20045;-82
2021/12/22 08:43:50;;;;;;;23.00;11.60;;;;;;;;;;5055084;28;20041;-80
2021/12/22 08:46:16;;;;;;;21.63;11.02;;;;;;;;;;5060951;28;20044;-81
2021/12/22 08:48:42;;;;;;;13.43;8.10;;;;;;;;;;5057847;28;20458;-81
2021/12/22 08:51:09;;;;;;;17.83;8.50;;;;;;;;;;5052864;28;20105;-81
2021/12/22 08:53:36;;;;;;;18.25;9.02;;;-2.70;99.90;;;;;;5035357;28;20045;-81
2021/12/22 08:56:02;;;;;;;20.60;10.02;;;;;;;;;;5052463;28;20373;-81
2021/12/22 08:58:28;;;;;;;12.57;7.55;;;;;;;;;;5051100;28;20103;-81
2021/12/22 09:00:54;;;;;;;20.95;10.98;;;;;;;;;;5039854;28;20045;-81
2021/12/22 09:03:21;;;;;;;15.32;8.82;;;;;;;;;;5041087;28;20119;-81
2021/12/22 09:05:47;;;;;;;22.63;7.60;;;;;;;;;;5045901;28;20090;-81
2021/12/22 09:08:13;;;;;;;14.20;8.35;;;;;;;;;;5052863;28;20056;-81
2021/12/22 09:10:39;;;;;;;19.88;11.40;;;;;;;;;;5063110;28;20109;-81
2021/12/22 09:13:06;;;;;;;24.40;10.07;;;;;;;;;;5059373;28;20068;-82
2021/12/22 09:15:32;;;;;;;16.77;8.63;;;;;;;;;;5052962;28;20036;-79
2021/12/22 09:17:58;;;;;;;11.10;7.05;;;;;;;;;;5048400;28;20566;-81
2021/12/22 09:20:24;;;;;;;15.63;6.40;;;;;;;;;;5045832;28;20037;-81
2021/12/22 09:22:51;;;;;;;17.73;8.45;;;;;;;;;;5061343;28;20472;-82
2021/12/22 09:25:17;;;;;;;18.73;9.32;;;;;;;;;;5045736;28;20051;-81
2021/12/22 09:27:43;;;;;;;17.15;8.18;;;;;;;;;;5057174;28;20444;-81
2021/12/22 09:30:09;;;;;;;15.95;8.18;;;;;;;;;;5040330;28;20047;-82
2021/12/22 09:32:36;;;;;;;8.13;5.05;;;;;;;;;;5060340;28;20045;-82
2021/12/22 09:35:02;;;;;;;18.45;9.07;;;;;;;;;;5056653;28;20049;-82
2021/12/22 09:37:28;;;;;;;21.10;9.15;;;;;;;;;;5053763;28;20616;-81
2021/12/22 09:39:54;;;;;;;17.52;8.30;;;;;;;;;;5039964;28;20028;-81
2021/12/22 09:42:20;;;;;;;10.32;6.25;;;;;;;;;;5055688;28;20657;-81
2021/12/22 09:44:47;;;;;;;20.02;10.40;;;;;;;;;;5052471;28;20045;-81
2021/12/22 09:47:16;;;;;;;20.92;10.80;;;-0.50;99.90;;;;;;5055072;28;20227;-81
2021/12/22 09:52:17;;;;;;;11.75;6.75;;;;;;;;;;5052656;28;20041;-82
2021/12/22 09:54:44;;;;;;;18.08;10.20;;;-0.70;99.90;;;;;;5035683;28;20681;-81
2021/12/22 09:57:10;;;;;;;23.75;8.75;;;;;;;;;;5056649;28;20032;-81
2021/12/22 09:59:36;;;;;;;17.10;9.73;;;;;;;;;;5038931;28;20506;-82
2021/12/22 10:02:03;;;;;;;14.73;9.07;;;;;;;;;;5056349;28;20045;-83
2021/12/22 10:04:29;;;;;;;16.73;9.32;;;;;;;;;;5050814;28;20040;-83
2021/12/22 10:06:56;;;;;;;18.80;10.40;;;;;;;;;;5038218;28;20388;-82
2021/12/22 10:09:24;;;;;;;20.30;9.38;;;;;;;;;;5059283;28;20523;-82
2021/12/22 10:11:50;;;;;;;15.18;7.47;;;-0.10;99.90;;;;;;5042898;28;20494;-82
2021/12/22 10:14:36;;;;;;;23.95;10.43;;;-0.90;99.90;;;;;;5059304;28;20414;-82
2021/12/22 10:17:02;;;;;;;19.33;9.45;;;;;;;;;;5040718;28;20487;-82
2021/12/22 10:19:28;;;;;;;16.48;8.32;;;;;;;;;;5037008;28;20043;-83
2021/12/22 10:22:02;;;;;;;15.43;7.97;;;-0.80;99.90;;;;;;5055730;28;20085;-83
2021/12/22 10:24:42;;;;;;;19.45;9.48;;;-0.70;99.90;;;;;;5059695;28;20041;-82
2021/12/22 10:27:17;;;;;;;20.65;9.45;;;-0.60;99.90;;;;;;5037136;28;20037;-84
2021/12/22 10:29:43;;;;;;;;;;;-0.60;99.90;;;;;;5035544;28;20044;-82
2021/12/22 10:32:16;;;;;;;19.15;10.18;;;-0.60;99.90;;;;;;5059583;28;19920;-82
2021/12/22 10:34:58;;;;;;;18.55;9.48;;;-0.50;99.90;;;;;;5035027;28;20045;-82
2021/12/22 10:37:44;;;;;;;19.52;9.88;;;-0.50;99.90;;;;;;5037961;28;20041;-82
2021/12/22 10:40:28;;;;;;;20.40;10.15;;;-0.40;99.90;;;;;;5055075;28;20088;-82
2021/12/22 10:42:55;;;;;;;20.50;10.43;;;;;;;;;;5048233;28;20041;-85
2021/12/22 10:45:21;;;;;;;20.70;9.27;;;;;;;;;;5046268;28;20089;-84
2021/12/22 10:50:36;;;;;;;19.65;10.02;;;-0.30;99.90;;;;;;5062322;28;20084;-80
2021/12/22 10:53:02;;;;;;;21.05;10.98;;;;;;;;;;5049327;28;20237;-81
2021/12/22 10:55:40;;;;;;;19.92;10.18;;;-0.10;99.90;;;;;;5059783;28;20074;-83
2021/12/22 10:58:24;;;;;;;21.08;10.27;;;;;;;;;;5060574;28;20049;-84
2021/12/22 11:01:12;;;;;;;20.25;9.35;;;0.50;99.90;;;;;;5061629;28;20441;-85
2021/12/22 11:03:44;;;;;;;23.70;12.07;;;0.00;99.90;;;;;;5065361;28;20429;-82
2021/12/22 11:06:16;;;;;;;22.52;10.88;;;-0.20;99.90;;;;;;5054295;28;20083;-84
2021/12/22 11:09:15;;;;;;;20.15;10.98;;;-0.50;99.90;;;;;;5041639;28;20057;-83
2021/12/22 11:11:43;;;;;;;23.58;11.60;;;;;;;;;;5059969;28;20047;-82
2021/12/22 11:14:09;;;;;;;19.23;9.93;;;;;;;;;;5043681;28;20044;-82
2021/12/22 11:16:52;;;;;;;19.88;10.32;;;;;;;;;;5038611;28;20144;-81
2021/12/22 11:19:18;;;;;;;18.67;9.15;;;;;;;;;;5045921;28;20056;-82
2021/12/22 11:22:14;;;;;;;23.40;10.98;;;0.10;99.90;;;;;;5060291;28;20051;-81
2021/12/22 11:24:40;;;;;;;;;;;0.00;99.90;;;;;;5051510;28;20044;-83
2021/12/22 11:27:07;;;;;;;25.92;10.95;;;;;;;;;;5055865;28;19973;-85
2021/12/22 11:29:34;;;;;;;24.33;11.88;;;;;;;;;;5041802;28;20041;-81
2021/12/22 11:32:03;;;;;;;20.77;11.70;;;;;;;;;;5041081;28;20525;-82
2021/12/22 11:34:30;;;;;;;20.70;10.02;;;;;;;;;;5048208;28;20047;-82
2021/12/22 11:36:57;;;;;;;16.83;8.88;;;;;;;;;;5057777;28;20499;-83
2021/12/22 11:39:23;;;;;;;17.58;9.48;;;;;;;;;;5058193;28;20040;-83
2021/12/22 11:41:58;;;;;;;20.17;11.02;;;;;;;;;;5064191;28;20047;-82
2021/12/22 11:44:25;;;;;;;20.02;10.65;;;;;;;;;;5042656;28;20037;-84
2021/12/22 11:46:53;;;;;;;23.60;11.52;;;;;;;;;;5056559;28;20094;-84
2021/12/22 11:49:21;;;;;;;22.73;11.50;;;;;;;;;;5056466;28;20167;-84
2021/12/22 11:51:47;;;;;;;25.42;11.48;;;;;;;;;;5075630;28;20043;-81
2021/12/22 11:54:13;;;;;;;23.13;11.63;;;-0.10;99.90;;;;;;5044888;28;20514;-82
2021/12/22 11:56:47;;;;;;;22.63;11.23;;;;;;;;;;5054087;28;20127;-83
2021/12/22 11:59:43;;;;;;;20.55;11.57;;;;;;;;;;5051800;28;20120;-82
2021/12/22 12:02:18;;;;;;;21.17;11.95;;;;;;;;;;5037209;28;20642;-84
2021/12/22 12:04:45;;;;;;;28.85;12.40;;;;;;;;;;5052643;28;20041;-84
2021/12/22 12:07:31;;;;;;;19.55;11.05;;;0.50;99.90;;;;;;5058022;28;20072;-84
2021/12/22 12:10:39;;;;;;;20.92;10.85;;;0.60;99.30;;;;;;5061410;28;20119;-83
2021/12/22 12:13:21;;;;;;;21.52;11.23;;;0.50;99.90;;;;;;5048328;28;20052;-84
2021/12/22 12:22:19;;;;;;;21.02;11.38;;;0.90;99.50;;;;;;5057155;28;20045;-85
2021/12/22 12:24:48;;;;;;;23.88;11.52;;;0.90;99.80;;;;;;5054082;28;20132;-85
2021/12/22 12:27:34;;;;;;;21.08;11.52;;;0.80;99.90;;;;;;5050153;28;20044;-84
2021/12/22 12:30:10;;;;;;;15.85;10.20;;;1.20;99.60;;;;;;5053164;28;20040;-82
2021/12/22 12:32:39;;;;;;;16.58;8.18;;;1.30;99.90;;;;;;5074224;28;20049;-82
2021/12/22 12:35:23;;;;;;;16.95;9.98;;;1.20;99.30;;;;;;5083157;28;20088;-80
2021/12/22 12:38:30;;;;;;;22.88;11.50;;;-0.30;98.30;;;;;;5053283;28;20040;-83
2021/12/22 12:40:57;;;;;;;24.38;12.10;;;;;;;;;;4978328;28;20253;-83
2021/12/22 12:46:45;;;;;;;18.02;7.15;;;0.70;99.90;;;;;;5056186;28;20376;-83
2021/12/22 12:49:12;;;;;;;18.77;9.18;;;;;;;;;;5057351;28;20040;-84
2021/12/22 12:51:41;;;;;;;21.52;10.60;;;0.40;99.90;;;;;;5047857;28;20386;-83
2021/12/22 12:54:17;;;;;;;18.33;9.52;;;0.30;99.90;;;;;;5050976;28;20052;-84
2021/12/22 12:56:49;;;;;;;17.90;9.90;;;0.60;99.90;;;;;;5056710;28;20037;-83
2021/12/22 12:59:47;;;;;;;21.73;9.77;;;0.80;99.90;;;;;;5058356;28;20055;-83
2021/12/22 13:02:21;;;;;;;13.30;6.82;;;1.10;99.90;;;;;;5050688;28;20053;-84
2021/12/22 13:04:47;;;;;;;16.98;9.52;;;1.50;99.90;;;;;;5055279;28;20059;-84
2021/12/22 13:07:14;;;;;;;12.57;6.68;;;2.00;99.90;;;;;;5055344;28;20127;-85
2021/12/22 13:09:40;;;;;;;19.55;9.20;;;;;;;;;;5054490;28;20113;-86
2021/12/22 13:12:14;;;;;;;19.60;10.70;;;;;;;;;;5056237;28;20032;-86
2021/12/22 13:17:34;;;;;;;18.88;9.43;;;0.70;99.90;;;;;;5047267;28;20389;-86
2021/12/22 13:20:00;;;;;;;20.98;9.40;;;0.60;99.90;;;;;;5035410;28;20072;-85
2021/12/22 13:22:28;;;;;;;18.20;10.60;;;0.40;99.90;;;;;;5052865;28;20139;-85
2021/12/22 13:25:15;;;;;;;18.50;10.25;;;0.00;99.90;;;;;;5051092;28;20120;-85
2021/12/22 13:27:44;;;;;;;19.33;10.55;;;-0.30;99.90;;;;;;5032494;28;20123;-83
2021/12/22 13:30:12;;;;;;;19.60;9.88;;;;;;;;;;5052785;28;20051;-84
2021/12/22 13:32:56;;;;;;;20.48;10.57;;;-0.50;99.90;;;;;;5054929;28;20045;-83
2021/12/22 13:35:32;;;;;;;23.48;11.48;;;-0.20;99.90;;;;;;5041388;28;20040;-84
2021/12/22 13:37:59;;;;;;;24.33;12.43;;;;;;;;;;5053038;28;20119;-85
2021/12/22 13:40:36;;;;;;;18.80;10.13;;;0.60;99.90;;;;;;5056778;28;20048;-82
2021/12/22 13:43:02;;;;;;;18.38;9.45;;;;;;;;;;5051713;28;20098;-84
2021/12/22 13:45:29;;;;;;;17.77;9.45;;;;;;;;;;5043806;28;20048;-83
2021/12/22 13:47:55;;;;;;;18.40;9.00;;;;;;;;;;5042942;28;20040;-82
2021/12/22 13:50:21;;;;;;;18.52;9.25;;;;;;;;;;5056555;28;20090;-82
2021/12/22 13:52:47;;;;;;;19.83;10.45;;;;;;;;;;5040097;28;20040;-83
2021/12/22 13:55:14;;;;;;;15.90;7.65;;;;;;;;;;5054824;28;20048;-83
2021/12/22 13:57:40;;;;;;;18.15;8.02;;;;;;;;;;5041411;28;20070;-84
2021/12/22 14:00:07;;;;;;;17.50;9.32;;;1.60;98.10;;;;;;5037640;28;20208;-83
2021/12/22 14:02:34;;;;;;;20.48;8.88;;;1.00;98.50;;;;;;5042656;28;20101;-85
2021/12/22 14:05:21;;;;;;;23.25;10.75;;;0.80;99.90;;;;;;5052873;28;20083;-85
2021/12/22 14:07:47;;;;;;;15.20;7.18;;;;;;;;;;5053474;28;20064;-84
2021/12/22 14:10:15;;;;;;;20.25;9.98;;;0.40;99.90;;;;;;5057668;28;20044;-84
2021/12/22 14:12:44;;;;;;;16.75;7.88;;;-0.30;99.90;;;;;;5045073;28;20482;-84
2021/12/22 14:15:11;;;;;;;22.02;9.88;;;;;;;;;;5038546;28;20377;-81
2021/12/22 14:17:45;;;;;;;18.00;9.65;;;-0.20;99.90;;;;;;5058179;28;20430;-82
2021/12/22 14:20:12;;;;;;;19.83;11.80;;;-0.20;99.90;;;;;;5053588;28;20037;-83
2021/12/22 14:22:40;;;;;;;18.90;9.05;;;-0.30;99.90;;;;;;5048682;28;20353;-84
2021/12/22 14:25:09;;;;;;;18.45;9.07;;;;;;;;;;5037050;28;20127;-80
2021/12/22 14:27:48;;;;;;;21.05;10.05;;;-0.30;99.90;;;;;;5046092;28;20044;-83
2021/12/22 14:30:31;;;;;;;11.88;7.78;;;-0.40;99.90;;;;;;5054045;28;20037;-82